Time;durP1;ratioP1;P1;durP2;ratioP2;P2;SDS_P1;SDS_P2;PMS_P1;PMS_P2;Temp;Humidity;BMP_temperature;BMP_pressure;BME280_temperature;BME280_humidity;BME280_pressure;Samples;Min_cycle;Max_cycle;Signal;HPM_P1;HPM_P2
2022/10/10 04:11:54;;;;;;;10.57;6.22;;;;;;;11.71;85.46;102170.69;5060113;28;20394;-82
2022/10/10 04:14:19;;;;;;;14.82;7.90;;;;;;;11.63;84.66;102147.56;5065182;28;20039;-80
2022/10/10 04:16:45;;;;;;;20.52;9.23;;;;;;;11.80;84.58;102147.13;5064945;28;20406;-79
2022/10/10 04:19:10;;;;;;;15.02;8.52;;;;;;;12.00;84.46;102152.56;5064906;28;20055;-80
2022/10/10 04:21:36;;;;;;;19.23;10.90;;;;;;;12.05;83.17;102136.84;5047212;28;20094;-79
2022/10/10 04:24:01;;;;;;;17.08;9.93;;;;;;;12.37;82.05;102163.50;5066376;28;20028;-80
2022/10/10 04:26:27;;;;;;;16.92;9.75;;;;;;;12.48;81.27;102170.03;5065974;28;20482;-79
2022/10/10 04:28:52;;;;;;;19.05;9.50;;;;;;;12.46;80.62;102168.41;5049676;28;20032;-87
2022/10/10 04:31:18;;;;;;;19.02;9.90;;;;;;;12.59;80.39;102178.34;5066368;28;20406;-80
2022/10/10 04:33:43;;;;;;;19.27;10.98;;;;;;;12.64;80.20;102179.03;5049214;28;20107;-83
2022/10/10 04:36:09;;;;;;;15.98;10.10;;;;;;;12.68;79.75;102174.59;5064775;28;20105;-79
2022/10/10 04:38:34;;;;;;;25.70;13.90;;;;;;;12.57;79.92;102163.72;4985887;28;20050;-79
2022/10/10 04:41:00;;;;;;;25.63;13.85;;;;;;;12.37;79.60;102132.38;5005822;28;20527;-78
2022/10/10 04:43:25;;;;;;;21.85;13.70;;;;;;;12.62;79.73;102180.84;5004277;28;20037;-83
2022/10/10 04:45:51;;;;;;;17.90;10.05;;;;;;;12.75;78.54;102178.69;5005782;28;20476;-87
2022/10/10 04:48:16;;;;;;;17.90;10.48;;;;;;;12.62;79.24;102167.00;4983446;28;20507;-83
2022/10/10 04:50:42;;;;;;;19.90;10.90;;;;;;;12.60;79.27;102179.19;5009409;28;20050;-81
2022/10/10 04:53:07;;;;;;;15.90;9.63;;;;;;;12.58;79.23;102181.81;5004667;28;20381;-88
2022/10/10 04:55:33;;;;;;;19.42;10.68;;;;;;;12.52;78.64;102182.03;4989618;28;20037;-89
2022/10/10 04:57:58;;;;;;;20.15;10.30;;;;;;;12.49;78.38;102191.69;4985731;28;20181;-85
2022/10/10 05:00:24;;;;;;;27.88;10.15;;;;;;;12.48;78.84;102201.19;4993078;28;20028;-84
2022/10/10 05:02:50;;;;;;;17.80;10.25;;;;;;;12.37;78.21;102173.88;5005932;28;20100;-82
2022/10/10 05:05:16;;;;;;;18.83;10.00;;;;;;;12.48;78.52;102206.38;5005943;28;20034;-87
2022/10/10 05:07:41;;;;;;;19.80;10.48;;;;;;;12.47;78.71;102209.03;5002807;28;20050;-88
2022/10/10 05:10:07;;;;;;;18.30;10.32;;;;;;;12.50;78.47;102214.16;4999664;28;20058;-88
2022/10/10 05:12:33;;;;;;;24.23;9.95;;;;;;;12.46;78.59;102209.94;4989065;28;20162;-93
2022/10/10 05:14:58;;;;;;;21.55;10.57;;;;;;;12.35;79.06;102200.75;4989696;28;20535;-85
2022/10/10 05:17:24;;;;;;;21.08;9.43;;;;;;;12.58;78.73;102227.72;4989390;28;20034;-87
2022/10/10 05:19:50;;;;;;;21.80;10.85;;;;;;;12.42;79.50;102218.72;4988323;28;20029;-83
2022/10/10 05:22:16;;;;;;;18.80;10.07;;;;;;;12.43;79.69;102207.44;4986083;28;20365;-86
2022/10/10 05:24:41;;;;;;;17.38;10.30;;;;;;;12.58;79.36;102222.50;4991432;28;20053;-85
2022/10/10 05:27:07;;;;;;;18.92;10.43;;;;;;;12.57;79.50;102223.41;4976255;28;20037;-92
2022/10/10 05:29:35;;;;;;;16.73;9.68;;;;;;;12.59;79.43;102232.88;4976586;28;20038;-94
2022/10/10 05:32:00;;;;;;;18.98;11.43;;;;;;;12.61;79.38;102235.41;4978087;28;20045;-95
2022/10/10 05:34:26;;;;;;;21.35;11.35;;;;;;;12.75;79.18;102240.16;4959526;28;20026;-85
2022/10/10 05:36:51;;;;;;;18.23;9.57;;;;;;;12.75;78.75;102235.81;4959375;28;20042;-89
2022/10/10 05:39:17;;;;;;;17.05;10.18;;;;;;;12.84;78.94;102251.09;4994562;28;20090;-95
2022/10/10 05:41:42;;;;;;;18.65;11.48;;;;;;;12.86;78.98;102257.09;4974104;28;20186;-94
2022/10/10 05:44:08;;;;;;;17.23;10.63;;;;;;;12.90;78.76;102255.25;4976679;28;20030;-90
2022/10/10 05:46:34;;;;;;;15.77;8.85;;;;;;;13.02;78.97;102238.41;4974400;28;20038;-90
2022/10/10 05:48:59;;;;;;;21.98;9.68;;;;;;;13.06;78.47;102255.59;4994735;28;20030;-89
2022/10/10 05:51:25;;;;;;;18.83;9.95;;;;;;;13.11;78.38;102266.69;5008077;28;20492;-90
2022/10/10 05:53:50;;;;;;;21.63;10.90;;;;;;;13.10;78.18;102270.19;4977153;28;20061;-91
2022/10/10 05:56:16;;;;;;;18.13;10.50;;;;;;;13.05;77.84;102253.88;4976022;28;20031;-91
2022/10/10 05:58:45;;;;;;;20.92;11.90;;;;;;;13.10;78.10;102265.00;4991596;28;20038;-87
2022/10/10 06:01:10;;;;;;;16.00;9.30;;;;;;;13.19;77.76;102275.13;4975332;28;20030;-89
2022/10/10 06:03:36;;;;;;;22.73;10.45;;;;;;;13.14;78.23;102274.38;4966537;28;20045;-86
2022/10/10 06:06:01;;;;;;;17.98;9.45;;;;;;;13.30;77.89;102278.19;4958692;28;20532;-94
2022/10/10 06:08:27;;;;;;;18.85;10.93;;;;;;;13.25;77.87;102280.09;4975993;28;20116;-90
2022/10/10 06:10:52;;;;;;;29.10;11.27;;;;;;;13.39;77.40;102280.47;5007244;28;20065;-91
2022/10/10 06:13:18;;;;;;;19.02;10.43;;;;;;;13.24;77.54;102267.16;4958611;28;20030;-88
2022/10/10 06:15:44;;;;;;;18.92;11.18;;;;;;;13.39;77.69;102274.44;4982638;28;20022;-83
2022/10/10 06:18:09;;;;;;;18.33;9.48;;;;;;;13.47;77.56;102282.81;4990690;28;20479;-86
2022/10/10 06:20:39;;;;;;;18.08;10.93;;;;;;;13.57;77.76;102289.41;4972538;28;20423;-84
2022/10/10 06:23:05;;;;;;;24.27;10.05;;;;;;;13.70;76.97;102290.66;4973342;28;20034;-82
2022/10/10 06:25:31;;;;;;;14.38;8.93;;;;;;;13.60;76.81;102272.84;4997756;28;20080;-86
2022/10/10 06:27:57;;;;;;;18.25;9.43;;;;;;;13.70;76.85;102295.00;4974829;28;20608;-83
2022/10/10 06:30:22;;;;;;;19.13;9.07;;;;;;;13.72;77.25;102299.25;4990650;28;20033;-84
2022/10/10 06:32:48;;;;;;;14.45;8.88;;;;;;;13.77;76.85;102291.28;4970615;28;20023;-82
2022/10/10 06:35:13;;;;;;;14.05;7.32;;;;;;;13.82;76.76;102286.75;4977528;28;20408;-82
2022/10/10 06:37:39;;;;;;;15.70;8.90;;;;;;;13.76;76.19;102268.75;4953942;28;20504;-82
2022/10/10 06:40:04;;;;;;;15.35;8.45;;;;;;;14.08;76.21;102304.03;4989254;28;20030;-86
2022/10/10 06:42:30;;;;;;;16.95;8.45;;;;;;;14.17;75.63;102301.09;5031488;28;20125;-84
2022/10/10 06:44:55;;;;;;;15.65;8.63;;;;;;;14.17;75.94;102300.25;4979088;28;20034;-84
2022/10/10 06:47:21;;;;;;;15.38;7.85;;;;;;;14.35;75.27;102304.72;4993339;28;20034;-87
2022/10/10 06:49:47;;;;;;;13.38;7.97;;;;;;;14.23;75.82;102294.78;4980466;28;20468;-80
2022/10/10 06:52:12;;;;;;;17.15;8.80;;;;;;;14.41;75.61;102303.66;5002054;28;20030;-86
2022/10/10 06:54:38;;;;;;;20.75;10.43;;;;;;;14.59;75.22;102308.19;4993070;28;20037;-82
2022/10/10 06:57:03;;;;;;;16.92;8.50;;;;;;;14.63;75.04;102321.03;5026207;28;20037;-80
2022/10/10 06:59:28;;;;;;;15.57;8.55;;;;;;;14.70;75.10;102310.38;5011036;28;20495;-80
2022/10/10 07:01:54;;;;;;;13.98;8.25;;;;;;;14.83;74.16;102322.84;4999541;28;20096;-79
2022/10/10 07:04:19;;;;;;;25.95;12.80;;;;;;;14.85;73.54;102315.00;4999321;28;20034;-79
2022/10/10 07:06:45;;;;;;;17.33;7.60;;;;;;;14.64;72.13;102280.19;4988747;28;20049;-91
2022/10/10 07:09:11;;;;;;;15.27;7.35;;;;;;;15.03;72.52;102323.81;5022915;28;20514;-84
2022/10/10 07:11:36;;;;;;;12.10;7.30;;;;;;;15.06;71.86;102316.72;4988998;28;20061;-86
2022/10/10 07:14:02;;;;;;;10.85;6.78;;;;;;;15.18;70.87;102329.25;5004725;28;20038;-87
2022/10/10 07:16:27;;;;;;;16.42;7.28;;;;;;;15.28;70.07;102331.47;5009281;28;20743;-88
2022/10/10 07:18:53;;;;;;;11.80;6.60;;;;;;;15.35;68.94;102319.91;5001364;28;20045;-84
2022/10/10 07:21:18;;;;;;;13.25;6.03;;;;;;;15.44;68.91;102332.56;4992751;28;20029;-93
2022/10/10 07:23:44;;;;;;;11.38;6.63;;;;;;;15.37;68.18;102333.72;4990572;28;20416;-87
2022/10/10 07:26:10;;;;;;;12.35;6.90;;;;;;;15.35;68.99;102340.75;4991782;28;20034;-87
2022/10/10 07:28:36;;;;;;;10.43;6.15;;;;;;;15.46;68.65;102331.56;5009727;28;20105;-80
2022/10/10 07:31:06;;;;;;;14.48;6.18;;;;;;;15.67;67.50;102331.59;4998054;28;20047;-84
2022/10/10 07:33:39;;;;;;;11.38;5.97;;;;;;;15.65;67.56;102326.44;5004679;28;20471;-92
2022/10/10 07:36:05;;;;;;;10.15;5.13;;;;;;;15.75;66.93;102340.78;4989308;28;20022;-88
2022/10/10 07:38:31;;;;;;;13.38;5.65;;;;;;;15.77;66.75;102338.09;4964930;28;20061;-89
2022/10/10 07:40:57;;;;;;;15.65;6.05;;;;;;;15.74;66.31;102331.25;5004634;28;20520;-82
2022/10/10 07:43:22;;;;;;;13.80;5.70;;;;;;;15.74;66.04;102318.22;4992101;28;20042;-84
2022/10/10 07:45:48;;;;;;;9.60;6.03;;;;;;;15.81;65.82;102308.34;4987894;28;20045;-83
2022/10/10 07:48:13;;;;;;;11.48;5.82;;;;;;;15.88;65.54;102342.84;4992104;28;20026;-81
2022/10/10 07:50:40;;;;;;;11.52;6.57;;;;;;;15.87;65.94;102320.28;4983132;28;20112;-81
2022/10/10 07:53:06;;;;;;;10.30;5.82;;;;;;;16.06;65.00;102329.00;4990104;28;20030;-82
2022/10/10 07:55:32;;;;;;;8.45;5.47;;;;;;;16.03;64.78;102327.38;5004379;28;20026;-84
2022/10/10 07:57:58;;;;;;;11.20;5.72;;;;;;;16.03;64.93;102323.91;4975936;28;20045;-86
2022/10/10 08:00:23;;;;;;;10.75;5.78;;;;;;;16.11;65.07;102332.22;5023191;28;20026;-87
2022/10/10 08:02:51;;;;;;;8.38;5.03;;;;;;;16.17;63.98;102321.50;4998490;28;20736;-89
2022/10/10 08:05:16;;;;;;;11.85;5.88;;;;;;;16.21;63.45;102328.28;4984005;28;20034;-87
2022/10/10 08:07:42;;;;;;;14.77;6.88;;;;;;;16.28;63.45;102334.94;4979061;28;20464;-89
2022/10/10 08:10:08;;;;;;;12.13;5.70;;;;;;;16.25;63.15;102332.47;4991285;28;20061;-85
2022/10/10 08:12:34;;;;;;;9.77;5.53;;;;;;;16.30;62.90;102316.56;5007764;28;20029;-86
2022/10/10 08:15:00;;;;;;;11.57;5.75;;;;;;;16.39;62.61;102326.59;4982702;28;20097;-90
2022/10/10 08:17:25;;;;;;;9.98;5.72;;;;;;;16.47;62.75;102316.63;5007360;28;20045;-87
2022/10/10 08:19:51;;;;;;;11.05;4.60;;;;;;;16.70;62.53;102331.25;5008685;28;20030;-88
2022/10/10 08:22:17;;;;;;;10.60;6.32;;;;;;;16.75;62.64;102334.50;4988649;28;20057;-91
2022/10/10 08:24:42;;;;;;;12.45;6.00;;;;;;;16.83;62.33;102336.75;4994162;28;20048;-86
2022/10/10 08:27:08;;;;;;;12.32;6.38;;;;;;;16.92;61.46;102321.47;5001049;28;20480;-86
2022/10/10 08:29:33;;;;;;;12.00;6.07;;;;;;;16.99;61.21;102332.47;4973749;28;20077;-83
2022/10/10 08:31:59;;;;;;;18.83;6.70;;;;;;;17.09;61.62;102335.47;5007754;28;20065;-85
2022/10/10 08:34:24;;;;;;;13.07;5.85;;;;;;;17.15;61.10;102336.03;5009750;28;20088;-83
2022/10/10 08:36:50;;;;;;;12.20;5.63;;;;;;;17.16;61.22;102324.66;4972578;28;20458;-84
2022/10/10 08:39:16;;;;;;;13.00;6.30;;;;;;;17.28;61.05;102340.66;5020846;28;20041;-84
2022/10/10 08:41:45;;;;;;;9.98;5.40;;;;;;;17.28;61.27;102332.81;5011559;28;20037;-87
2022/10/10 08:44:27;;;;;;;15.55;6.95;;;;;;;17.43;61.04;102351.19;5021135;28;20022;-83
2022/10/10 08:46:57;;;;;;;11.38;6.25;;;;;;;17.47;60.38;102339.66;5021731;28;20033;-83
2022/10/10 08:49:33;;;;;;;17.70;6.70;;;;;;;17.56;60.84;102340.09;4998711;28;21206;-89
2022/10/10 08:52:02;;;;;;;10.57;5.82;;;;;;;17.50;59.42;102322.94;5007223;28;20029;-87
2022/10/10 08:54:28;;;;;;;9.65;5.75;;;;;;;17.61;59.37;102331.09;4993753;28;20032;-87
2022/10/10 08:56:55;;;;;;;10.20;5.65;;;;;;;17.80;59.26;102338.00;4994132;28;20489;-86
2022/10/10 08:59:23;;;;;;;10.68;6.18;;;;;;;17.84;58.34;102331.72;5004239;28;20033;-82
2022/10/10 09:01:49;;;;;;;14.77;7.85;;;;;;;17.88;58.32;102326.22;5021059;28;20117;-87
2022/10/10 09:04:16;;;;;;;12.43;6.15;;;;;;;17.99;58.37;102328.28;4998005;28;20144;-89
2022/10/10 09:07:06;;;;;;;10.20;6.25;;;;;;;18.15;57.75;102341.41;5029099;28;20022;-86
2022/10/10 09:09:50;;;;;;;12.43;6.10;;;;;;;18.19;57.36;102346.41;5028354;28;20533;-87
2022/10/10 09:12:28;;;;;;;11.00;6.00;;;;;;;18.01;57.01;102298.47;5030307;28;20032;-88
2022/10/10 09:15:40;;;;;;;12.32;6.50;;;;;;;18.29;57.04;102317.94;5021361;28;20026;-89
2022/10/10 09:18:29;;;;;;;19.27;7.13;;;;;;;18.39;57.18;102319.13;5021726;28;20042;-86
2022/10/10 09:21:00;;;;;;;11.93;6.00;;;;;;;18.39;56.41;102337.47;5015254;28;20817;-91
2022/10/10 09:23:36;;;;;;;10.65;5.75;;;;;;;18.41;56.04;102330.38;5014728;28;20030;-86
2022/10/10 09:26:03;;;;;;;12.18;5.93;;;;;;;18.30;56.54;102314.38;5021979;28;20133;-88
2022/10/10 09:29:02;;;;;;;9.60;5.53;;;;;;;18.51;56.02;102334.16;5013502;28;20473;-88
2022/10/10 09:31:57;;;;;;;14.40;7.90;;;;;;;18.37;56.60;102327.97;5013016;28;20033;-86
2022/10/10 09:35:04;;;;;;;12.48;6.25;;;;;;;18.56;56.91;102345.22;5015299;28;20045;-86
2022/10/10 09:37:34;;;;;;;11.25;6.93;;;;;;;18.45;56.40;102321.41;5011005;28;20511;-87
2022/10/10 09:40:02;;;;;;;12.68;6.05;;;;;;;18.42;55.84;102308.47;5014348;28;20033;-84
2022/10/10 09:42:34;;;;;;;8.77;5.50;;;;;;;18.76;59.16;102332.81;5014393;28;20120;-84
2022/10/10 09:45:00;;;;;;;13.73;7.20;;;;;;;18.84;56.40;102320.97;5015174;28;20376;-84
2022/10/10 09:47:25;;;;;;;14.85;7.05;;;;;;;18.85;54.71;102321.81;5014491;28;20491;-84
2022/10/10 09:49:51;;;;;;;12.80;6.68;;;;;;;18.77;54.90;102308.28;5008782;28;20022;-83
2022/10/10 09:52:27;;;;;;;12.48;6.63;;;;;;;18.98;54.54;102338.56;4997213;28;20037;-85
2022/10/10 09:55:01;;;;;;;15.77;6.70;;;;;;;18.93;54.44;102314.34;4995507;28;20029;-88
2022/10/10 09:57:38;;;;;;;12.98;5.65;;;;;;;19.04;54.02;102311.97;5006941;28;20029;-88
2022/10/10 10:00:25;;;;;;;11.82;5.82;;;;;;;19.14;53.87;102323.59;4983684;28;20108;-81
2022/10/10 10:03:12;;;;;;;11.43;6.03;;;;;;;19.14;54.16;102309.66;5014775;28;20028;-83
2022/10/10 10:05:39;;;;;;;16.88;6.85;;;;;;;19.17;53.59;102302.47;4998453;28;20033;-86
2022/10/10 10:08:05;;;;;;;13.07;6.80;;;;;;;19.29;52.60;102305.28;5014242;28;20033;-82
2022/10/10 10:10:38;;;;;;;11.52;6.40;;;;;;;19.17;52.96;102284.09;5016149;28;20054;-88
2022/10/10 10:13:12;;;;;;;12.52;6.93;;;;;;;19.30;52.62;102301.72;4987506;28;20034;-93
2022/10/10 10:15:37;;;;;;;11.10;6.63;;;;;;;19.43;52.75;102305.31;4975347;28;20037;-84
2022/10/10 10:18:15;;;;;;;15.55;7.90;;;;;;;19.50;52.18;102293.50;5007075;28;20422;-85
2022/10/10 10:20:42;;;;;;;13.75;6.93;;;;;;;19.54;51.93;102304.66;5011213;28;20061;-84
2022/10/10 10:23:31;;;;;;;12.77;6.72;;;;;;;19.60;51.58;102301.72;5003386;28;20125;-86
2022/10/10 10:26:01;;;;;;;14.50;6.60;;;;;;;19.59;51.65;102308.75;4984263;28;20557;-87
2022/10/10 10:28:27;;;;;;;13.02;6.40;;;;;;;19.65;51.11;102297.00;4998099;28;20084;-86
2022/10/10 10:30:54;;;;;;;11.88;6.05;;;;;;;19.62;50.70;102298.06;4987284;28;21583;-84
2022/10/10 10:33:38;;;;;;;13.30;5.50;;;;;;;19.68;50.01;102296.84;4988477;28;20044;-86
2022/10/10 10:36:25;;;;;;;9.77;5.53;;;;;;;19.68;49.51;102297.69;5003070;28;20026;-83
2022/10/10 10:39:29;;;;;;;11.15;4.85;;;;;;;19.56;48.83;102266.91;4973233;28;20057;-82
2022/10/10 10:42:00;;;;;;;8.77;4.90;;;;;;;19.67;48.43;102280.25;4986181;28;20069;-85
2022/10/10 10:44:41;;;;;;;10.88;5.53;;;;;;;19.81;49.32;102289.06;4966128;28;20483;-84
2022/10/10 10:47:25;;;;;;;11.13;5.55;;;;;;;19.90;49.70;102291.13;4995207;28;20056;-84
2022/10/10 10:50:21;;;;;;;11.75;6.25;;;;;;;19.82;49.63;102270.56;5020548;28;20026;-88
2022/10/10 10:52:56;;;;;;;9.45;5.93;;;;;;;20.09;50.25;102275.91;5016436;28;20048;-91
2022/10/10 10:55:28;;;;;;;12.73;6.00;;;;;;;20.14;49.35;102262.44;5034906;28;20498;-93
2022/10/10 10:58:28;;;;;;;15.30;6.30;;;;;;;20.19;48.97;102271.75;5027297;28;20454;-87
2022/10/10 11:01:34;;;;;;;16.10;8.25;;;;;;;20.24;49.02;102268.81;5028025;28;20029;-89
2022/10/10 11:04:19;;;;;;;10.88;5.15;;;;;;;20.27;48.45;102264.22;5008854;28;20048;-80
2022/10/10 11:06:57;;;;;;;9.73;5.32;;;;;;;20.25;48.40;102263.44;5025182;28;20032;-81
2022/10/10 11:09:26;;;;;;;11.68;5.72;;;;;;;20.19;47.73;102245.47;4989501;28;20029;-81
2022/10/10 11:12:17;;;;;;;13.65;7.13;;;;;;;20.26;46.92;102262.53;5008511;28;20049;-83
2022/10/10 11:15:05;;;;;;;11.85;6.30;;;;;;;20.15;47.19;102238.69;5021429;28;20056;-84
2022/10/10 11:17:38;;;;;;;9.65;5.30;;;;;;;20.15;47.80;102240.50;4998285;28;20034;-84
2022/10/10 11:20:18;;;;;;;29.73;15.38;;;;;;;20.20;47.95;102257.66;5012292;28;20026;-87
2022/10/10 11:22:47;;;;;;;33.95;15.50;;;;;;;20.18;47.79;102230.66;5030692;28;20029;-81
2022/10/10 11:25:27;;;;;;;36.38;19.95;;;;;;;20.19;47.41;102234.97;5013023;28;20036;-80
2022/10/10 11:28:04;;;;;;;15.13;7.50;;;;;;;20.19;47.82;102236.75;4984143;28;20025;-89
2022/10/10 11:30:33;;;;;;;14.23;7.47;;;;;;;20.20;50.47;102227.91;5012649;28;20414;-85
2022/10/10 11:33:00;;;;;;;16.80;8.82;;;;;;;20.20;52.52;102241.06;4997821;28;20080;-90
2022/10/10 11:35:40;;;;;;;15.95;7.88;;;;;;;20.15;52.62;102228.19;4991546;28;20030;-85
2022/10/10 11:38:37;;;;;;;13.30;6.90;;;;;;;20.23;50.86;102222.44;4992857;28;20022;-84
2022/10/10 11:41:06;;;;;;;11.95;6.28;;;;;;;20.31;51.56;102218.41;5007136;28;20140;-85
2022/10/10 11:43:33;;;;;;;14.65;7.47;;;;;;;20.37;52.26;102213.69;5010049;28;20032;-89
2022/10/10 11:46:04;;;;;;;16.23;9.55;;;;;;;20.38;52.57;102218.00;5009688;28;20061;-90
2022/10/10 11:48:42;;;;;;;21.67;11.43;;;;;;;20.20;51.96;102183.25;4994077;28;20041;-87
2022/10/10 11:51:15;;;;;;;10.60;6.43;;;;;;;20.29;49.16;102188.75;4993600;28;20022;-84
2022/10/10 11:53:42;;;;;;;9.63;5.43;;;;;;;20.46;48.01;102206.09;4991384;28;20049;-82
2022/10/10 11:56:52;;;;;;;14.95;7.57;;;;;;;20.36;51.04;102183.09;4983511;28;20054;-85
2022/10/10 11:59:27;;;;;;;12.57;6.95;;;;;;;20.43;51.35;102194.91;4977447;28;20033;-87
2022/10/10 12:01:54;;;;;;;14.55;7.35;;;;;;;20.31;51.96;102181.59;4954496;28;20318;-90
2022/10/10 12:04:21;;;;;;;13.18;7.82;;;;;;;20.40;52.11;102192.47;4969628;28;20038;-93
2022/10/10 12:06:47;;;;;;;16.92;9.35;;;;;;;20.34;52.31;102186.66;4974633;28;20062;-91
2022/10/10 12:09:28;;;;;;;25.73;13.45;;;;;;;20.37;52.69;102193.50;5006311;28;20384;-88
2022/10/10 12:12:05;;;;;;;13.10;7.55;;;;;;;20.32;52.35;102187.69;4991768;28;20042;-91
2022/10/10 12:14:31;;;;;;;15.45;7.28;;;;;;;20.27;51.95;102174.03;4991095;28;20025;-85
2022/10/10 12:16:57;;;;;;;12.00;6.43;;;;;;;20.26;51.29;102162.69;4990215;28;20511;-88
2022/10/10 12:19:24;;;;;;;11.30;6.57;;;;;;;20.38;51.72;102175.94;4972127;28;20096;-84
2022/10/10 12:22:07;;;;;;;14.38;6.43;;;;;;;20.31;51.36;102160.56;4979156;28;20050;-86
2022/10/10 12:24:34;;;;;;;14.07;6.95;;;;;;;20.23;51.38;102172.53;4983166;28;20137;-94
2022/10/10 12:26:59;;;;;;;11.82;7.25;;;;;;;20.36;51.83;102183.09;5009895;28;20100;-89
2022/10/10 12:29:47;;;;;;;15.70;7.13;;;;;;;20.27;52.68;102185.38;5009991;28;20112;-84
2022/10/10 12:32:13;;;;;;;15.75;6.97;;;;;;;20.25;52.49;102171.47;5010835;28;20211;-82
2022/10/10 12:34:47;;;;;;;12.10;6.88;;;;;;;20.37;52.87;102169.84;5014600;28;20495;-86
2022/10/10 12:37:29;;;;;;;13.55;6.63;;;;;;;20.24;51.37;102159.28;5012745;28;20041;-91
2022/10/10 12:40:06;;;;;;;14.27;6.88;;;;;;;20.44;51.38;102168.50;4995633;28;20085;-86
2022/10/10 12:42:47;;;;;;;10.75;6.70;;;;;;;20.43;51.86;102156.31;4993930;28;20031;-81
2022/10/10 12:45:28;;;;;;;15.98;6.32;;;;;;;20.49;51.17;102168.22;5011671;28;20104;-85
2022/10/10 12:47:57;;;;;;;11.90;6.22;;;;;;;20.47;51.16;102167.50;5013826;28;20030;-80
2022/10/10 12:50:37;;;;;;;18.77;6.55;;;;;;;20.51;51.17;102169.81;4996544;28;20081;-93
2022/10/10 12:53:12;;;;;;;12.68;6.53;;;;;;;20.54;49.69;102161.69;4979689;28;20068;-82
2022/10/10 12:55:47;;;;;;;20.45;11.85;;;;;;;20.65;49.98;102166.28;5009865;28;20026;-83
2022/10/10 12:58:26;;;;;;;15.38;8.50;;;;;;;20.70;48.54;102148.38;4996900;28;20044;-85
2022/10/10 13:00:52;;;;;;;17.55;7.80;;;;;;;20.77;47.24;102154.91;5010845;28;20030;-82
2022/10/10 13:03:28;;;;;;;16.98;6.80;;;;;;;20.76;45.58;102155.03;5010869;28;20029;-85
2022/10/10 13:05:53;;;;;;;12.82;7.20;;;;;;;20.67;46.83;102135.44;5011201;28;20126;-81
2022/10/10 13:08:24;;;;;;;14.73;7.10;;;;;;;20.76;47.20;102134.81;4978465;28;20097;-81
2022/10/10 13:11:01;;;;;;;13.98;7.40;;;;;;;20.65;47.42;102126.84;4978524;28;20056;-81
2022/10/10 13:13:27;;;;;;;13.63;6.00;;;;;;;20.81;45.92;102143.22;5012046;28;20117;-80
2022/10/10 13:15:54;;;;;;;12.82;7.50;;;;;;;20.78;45.90;102132.09;5012023;28;20089;-88
2022/10/10 13:18:39;;;;;;;10.95;6.88;;;;;;;20.74;45.58;102144.59;4994499;28;20029;-79
2022/10/10 13:21:11;;;;;;;12.38;6.07;;;;;;;20.76;45.54;102140.09;4994629;28;20061;-82
2022/10/10 13:23:43;;;;;;;11.65;6.78;;;;;;;20.74;45.90;102141.97;4996094;28;20076;-80
2022/10/10 13:26:21;;;;;;;11.90;6.43;;;;;;;20.74;46.07;102136.69;4995049;28;20661;-81
2022/10/10 13:28:47;;;;;;;14.23;6.28;;;;;;;20.69;46.33;102128.28;4995535;28;20026;-86
2022/10/10 13:31:12;;;;;;;13.57;7.80;;;;;;;20.56;46.24;102104.63;4995165;28;20040;-84
2022/10/10 13:33:38;;;;;;;15.68;6.10;;;;;;;20.58;46.03;102126.41;4978611;28;20087;-84
2022/10/10 13:36:05;;;;;;;12.75;6.05;;;;;;;20.62;46.45;102132.28;4995604;28;20034;-84
2022/10/10 13:38:31;;;;;;;9.80;5.22;;;;;;;20.59;45.76;102128.06;4996054;28;20034;-82
2022/10/10 13:40:56;;;;;;;12.25;6.25;;;;;;;20.52;46.00;102116.28;4995705;28;20092;-81
2022/10/10 13:43:22;;;;;;;8.65;4.80;;;;;;;20.47;45.64;102122.81;4978388;28;20026;-85
2022/10/10 13:45:59;;;;;;;12.40;5.97;;;;;;;20.38;45.96;102107.63;4998488;28;20523;-90
2022/10/10 13:48:36;;;;;;;10.82;4.22;;;;;;;20.55;44.57;102123.09;5001088;28;20082;-84
2022/10/10 13:51:09;;;;;;;6.95;3.95;;;;;;;20.45;44.35;102122.03;5011846;28;20030;-84
2022/10/10 13:53:50;;;;;;;8.10;4.25;;;;;;;20.33;44.75;102108.75;4995721;28;20030;-82
2022/10/10 13:56:25;;;;;;;10.57;4.60;;;;;;;20.24;45.69;102104.09;4971146;28;20022;-81
2022/10/10 13:58:52;;;;;;;8.45;4.13;;;;;;;20.28;45.67;102100.34;4979879;28;20491;-81
2022/10/10 14:01:28;;;;;;;9.75;4.07;;;;;;;20.37;45.85;102105.94;4995032;28;20030;-80
2022/10/10 14:04:12;;;;;;;8.60;3.88;;;;;;;20.29;45.06;102109.91;5010957;28;20488;-80
2022/10/10 14:06:38;;;;;;;7.15;3.78;;;;;;;20.18;45.50;102107.16;5012421;28;20403;-82
